sensor_id;sensor_type;location;lat;lon;timestamp;temperature;humidity
33815;DHT22;20121;51.910;8.406;2022-12-29T00:02:16;10.10;99.90
33815;DHT22;20121;51.910;8.406;2022-12-29T00:04:42;11.00;99.90
33815;DHT22;20121;51.910;8.406;2022-12-29T00:07:08;10.20;99.90
33815;DHT22;20121;51.910;8.406;2022-12-29T00:09:34;10.30;99.90
33815;DHT22;20121;51.910;8.406;2022-12-29T00:12:01;10.90;99.90
33815;DHT22;20121;51.910;8.406;2022-12-29T00:14:27;10.00;99.90
33815;DHT22;20121;51.910;8.406;2022-12-29T00:17:12;10.50;99.90
33815;DHT22;20121;51.910;8.406;2022-12-29T00:19:38;10.40;99.90
33815;DHT22;20121;51.910;8.406;2022-12-29T00:22:22;10.90;99.90
33815;DHT22;20121;51.910;8.406;2022-12-29T00:25:10;9.90;99.90
33815;DHT22;20121;51.910;8.406;2022-12-29T00:27:55;9.90;99.90
33815;DHT22;20121;51.910;8.406;2022-12-29T00:30:39;9.90;99.90
33815;DHT22;20121;51.910;8.406;2022-12-29T00:33:29;10.20;99.90
33815;DHT22;20121;51.910;8.406;2022-12-29T00:38:41;10.00;99.90
33815;DHT22;20121;51.910;8.406;2022-12-29T00:41:27;10.50;99.90
33815;DHT22;20121;51.910;8.406;2022-12-29T00:44:13;10.00;99.90
33815;DHT22;20121;51.910;8.406;2022-12-29T00:46:40;10.00;99.90
33815;DHT22;20121;51.910;8.406;2022-12-29T00:49:09;9.90;99.90
33815;DHT22;20121;51.910;8.406;2022-12-29T00:51:55;10.00;99.90
33815;DHT22;20121;51.910;8.406;2022-12-29T00:54:21;10.30;99.90
33815;DHT22;20121;51.910;8.406;2022-12-29T00:56:51;11.30;99.90
33815;DHT22;20121;51.910;8.406;2022-12-29T00:59:18;10.00;99.90
33815;DHT22;20121;51.910;8.406;2022-12-29T01:01:44;10.20;99.90
33815;DHT22;20121;51.910;8.406;2022-12-29T01:04:11;10.10;99.90
33815;DHT22;20121;51.910;8.406;2022-12-29T01:06:38;9.70;99.90
33815;DHT22;20121;51.910;8.406;2022-12-29T01:09:05;10.10;99.90
33815;DHT22;20121;51.910;8.406;2022-12-29T01:11:50;10.10;99.90
33815;DHT22;20121;51.910;8.406;2022-12-29T01:14:16;10.10;99.90
33815;DHT22;20121;51.910;8.406;2022-12-29T01:16:42;10.60;99.90
33815;DHT22;20121;51.910;8.406;2022-12-29T01:19:07;10.20;99.90
33815;DHT22;20121;51.910;8.406;2022-12-29T01:21:33;10.00;99.90
33815;DHT22;20121;51.910;8.406;2022-12-29T01:23:59;10.00;99.90
33815;DHT22;20121;51.910;8.406;2022-12-29T01:26:24;9.90;99.90
33815;DHT22;20121;51.910;8.406;2022-12-29T01:28:50;10.50;99.90
33815;DHT22;20121;51.910;8.406;2022-12-29T01:31:16;10.10;99.90
33815;DHT22;20121;51.910;8.406;2022-12-29T01:33:42;10.10;99.90
33815;DHT22;20121;51.910;8.406;2022-12-29T01:36:11;10.10;99.90
33815;DHT22;20121;51.910;8.406;2022-12-29T01:38:38;10.10;99.90
33815;DHT22;20121;51.910;8.406;2022-12-29T01:41:04;10.40;99.90
33815;DHT22;20121;51.910;8.406;2022-12-29T01:43:53;10.20;99.90
33815;DHT22;20121;51.910;8.406;2022-12-29T01:46:25;10.20;99.90
33815;DHT22;20121;51.910;8.406;2022-12-29T01:48:59;10.20;99.90
33815;DHT22;20121;51.910;8.406;2022-12-29T01:51:27;10.40;99.90
33815;DHT22;20121;51.910;8.406;2022-12-29T01:53:55;10.90;99.90
33815;DHT22;20121;51.910;8.406;2022-12-29T01:56:21;10.00;99.90
33815;DHT22;20121;51.910;8.406;2022-12-29T01:58:54;10.10;99.90
33815;DHT22;20121;51.910;8.406;2022-12-29T02:01:21;10.10;99.90
33815;DHT22;20121;51.910;8.406;2022-12-29T02:03:47;10.30;99.90
33815;DHT22;20121;51.910;8.406;2022-12-29T02:06:22;10.20;99.90
33815;DHT22;20121;51.910;8.406;2022-12-29T02:08:50;10.00;99.90
33815;DHT22;20121;51.910;8.406;2022-12-29T02:11:16;10.10;99.90
33815;DHT22;20121;51.910;8.406;2022-12-29T02:13:42;10.00;99.90
33815;DHT22;20121;51.910;8.406;2022-12-29T02:16:31;10.10;99.90
33815;DHT22;20121;51.910;8.406;2022-12-29T02:19:27;10.20;99.90
33815;DHT22;20121;51.910;8.406;2022-12-29T02:36:22;10.20;99.90
33815;DHT22;20121;51.910;8.406;2022-12-29T02:39:20;10.20;99.90
33815;DHT22;20121;51.910;8.406;2022-12-29T02:42:07;10.20;99.90
33815;DHT22;20121;51.910;8.406;2022-12-29T02:44:50;10.30;99.90
33815;DHT22;20121;51.910;8.406;2022-12-29T02:47:40;10.30;99.90
33815;DHT22;20121;51.910;8.406;2022-12-29T02:50:17;10.40;99.90
33815;DHT22;20121;51.910;8.406;2022-12-29T02:52:50;10.40;99.90
33815;DHT22;20121;51.910;8.406;2022-12-29T02:55:17;10.50;99.90
33815;DHT22;20121;51.910;8.406;2022-12-29T02:57:43;10.60;99.90
33815;DHT22;20121;51.910;8.406;2022-12-29T03:00:16;11.50;99.90
33815;DHT22;20121;51.910;8.406;2022-12-29T03:08:21;10.70;99.90
33815;DHT22;20121;51.910;8.406;2022-12-29T03:19:00;10.70;99.90
33815;DHT22;20121;51.910;8.406;2022-12-29T03:21:36;10.80;99.90
33815;DHT22;20121;51.910;8.406;2022-12-29T03:24:34;10.80;99.90
33815;DHT22;20121;51.910;8.406;2022-12-29T03:27:03;11.10;99.90
33815;DHT22;20121;51.910;8.406;2022-12-29T03:29:33;11.10;99.90
33815;DHT22;20121;51.910;8.406;2022-12-29T03:32:02;11.00;99.90
33815;DHT22;20121;51.910;8.406;2022-12-29T03:34:30;10.80;99.90
33815;DHT22;20121;51.910;8.406;2022-12-29T03:37:02;10.80;99.90
33815;DHT22;20121;51.910;8.406;2022-12-29T03:39:30;10.90;99.90
33815;DHT22;20121;51.910;8.406;2022-12-29T03:42:01;10.80;99.90
33815;DHT22;20121;51.910;8.406;2022-12-29T03:44:37;10.90;99.90
33815;DHT22;20121;51.910;8.406;2022-12-29T03:47:03;10.70;99.90
33815;DHT22;20121;51.910;8.406;2022-12-29T03:49:29;10.70;99.90
33815;DHT22;20121;51.910;8.406;2022-12-29T03:51:54;11.00;99.90
33815;DHT22;20121;51.910;8.406;2022-12-29T03:54:20;10.80;99.90
33815;DHT22;20121;51.910;8.406;2022-12-29T03:56:46;10.90;99.90
33815;DHT22;20121;51.910;8.406;2022-12-29T03:59:11;10.70;99.90
33815;DHT22;20121;51.910;8.406;2022-12-29T04:01:37;10.80;99.90
33815;DHT22;20121;51.910;8.406;2022-12-29T04:04:03;10.90;99.90
33815;DHT22;20121;51.910;8.406;2022-12-29T04:06:29;10.90;99.90
33815;DHT22;20121;51.910;8.406;2022-12-29T04:08:54;10.90;99.90
33815;DHT22;20121;51.910;8.406;2022-12-29T04:11:21;10.90;99.90
33815;DHT22;20121;51.910;8.406;2022-12-29T04:13:46;10.90;99.90
33815;DHT22;20121;51.910;8.406;2022-12-29T04:16:12;10.90;99.90
33815;DHT22;20121;51.910;8.406;2022-12-29T04:21:04;11.00;99.90
33815;DHT22;20121;51.910;8.406;2022-12-29T04:23:33;11.00;99.90
33815;DHT22;20121;51.910;8.406;2022-12-29T04:25:59;11.30;99.90
33815;DHT22;20121;51.910;8.406;2022-12-29T04:28:25;11.00;99.90
33815;DHT22;20121;51.910;8.406;2022-12-29T04:30:50;11.40;99.90
33815;DHT22;20121;51.910;8.406;2022-12-29T04:33:16;11.00;99.90
33815;DHT22;20121;51.910;8.406;2022-12-29T04:35:42;11.00;99.90
33815;DHT22;20121;51.910;8.406;2022-12-29T04:38:08;11.60;99.90
33815;DHT22;20121;51.910;8.406;2022-12-29T04:40:34;11.20;99.90
33815;DHT22;20121;51.910;8.406;2022-12-29T04:43:00;11.00;99.90
33815;DHT22;20121;51.910;8.406;2022-12-29T04:45:26;11.00;99.90
33815;DHT22;20121;51.910;8.406;2022-12-29T04:47:51;10.90;99.90
33815;DHT22;20121;51.910;8.406;2022-12-29T04:50:17;11.10;99.90
33815;DHT22;20121;51.910;8.406;2022-12-29T04:52:42;11.00;99.90
33815;DHT22;20121;51.910;8.406;2022-12-29T04:55:08;10.90;99.90
33815;DHT22;20121;51.910;8.406;2022-12-29T04:57:34;11.00;99.90
33815;DHT22;20121;51.910;8.406;2022-12-29T05:00:00;10.90;99.90
33815;DHT22;20121;51.910;8.406;2022-12-29T05:02:25;10.90;99.90
33815;DHT22;20121;51.910;8.406;2022-12-29T05:04:51;11.10;99.90
33815;DHT22;20121;51.910;8.406;2022-12-29T05:07:16;11.20;99.90
33815;DHT22;20121;51.910;8.406;2022-12-29T05:09:42;10.80;99.90
33815;DHT22;20121;51.910;8.406;2022-12-29T05:12:07;10.80;99.90
33815;DHT22;20121;51.910;8.406;2022-12-29T05:14:33;10.70;99.90
33815;DHT22;20121;51.910;8.406;2022-12-29T05:16:59;10.60;99.90
33815;DHT22;20121;51.910;8.406;2022-12-29T05:19:24;10.80;99.90
33815;DHT22;20121;51.910;8.406;2022-12-29T05:21:50;10.90;99.90
33815;DHT22;20121;51.910;8.406;2022-12-29T05:24:16;10.80;99.90
33815;DHT22;20121;51.910;8.406;2022-12-29T05:26:41;11.20;99.90
33815;DHT22;20121;51.910;8.406;2022-12-29T05:29:07;10.80;99.90
33815;DHT22;20121;51.910;8.406;2022-12-29T05:31:33;10.90;99.90
33815;DHT22;20121;51.910;8.406;2022-12-29T05:34:01;11.50;99.90
33815;DHT22;20121;51.910;8.406;2022-12-29T05:36:27;10.90;99.90
33815;DHT22;20121;51.910;8.406;2022-12-29T05:38:52;11.40;99.90
33815;DHT22;20121;51.910;8.406;2022-12-29T05:41:18;11.00;99.90
33815;DHT22;20121;51.910;8.406;2022-12-29T05:43:44;11.10;99.90
33815;DHT22;20121;51.910;8.406;2022-12-29T05:46:10;10.90;99.90
33815;DHT22;20121;51.910;8.406;2022-12-29T05:48:35;11.10;99.90
33815;DHT22;20121;51.910;8.406;2022-12-29T05:51:01;11.00;99.90
33815;DHT22;20121;51.910;8.406;2022-12-29T05:53:27;11.10;99.90
33815;DHT22;20121;51.910;8.406;2022-12-29T05:55:52;10.90;99.90
33815;DHT22;20121;51.910;8.406;2022-12-29T05:58:19;11.00;99.90
33815;DHT22;20121;51.910;8.406;2022-12-29T06:00:45;11.00;99.90
33815;DHT22;20121;51.910;8.406;2022-12-29T06:03:10;11.00;99.90
33815;DHT22;20121;51.910;8.406;2022-12-29T06:05:36;11.20;99.90
33815;DHT22;20121;51.910;8.406;2022-12-29T06:08:03;11.50;99.90
33815;DHT22;20121;51.910;8.406;2022-12-29T06:10:28;11.00;99.90
33815;DHT22;20121;51.910;8.406;2022-12-29T06:12:54;11.00;99.90
33815;DHT22;20121;51.910;8.406;2022-12-29T06:15:19;11.00;99.90
33815;DHT22;20121;51.910;8.406;2022-12-29T06:17:45;10.90;99.90
33815;DHT22;20121;51.910;8.406;2022-12-29T06:20:11;11.00;99.90
33815;DHT22;20121;51.910;8.406;2022-12-29T06:22:37;11.00;99.90
33815;DHT22;20121;51.910;8.406;2022-12-29T06:25:03;11.00;99.90
33815;DHT22;20121;51.910;8.406;2022-12-29T06:27:28;11.10;99.90
33815;DHT22;20121;51.910;8.406;2022-12-29T06:29:54;11.40;99.90
33815;DHT22;20121;51.910;8.406;2022-12-29T06:32:20;11.20;99.90
33815;DHT22;20121;51.910;8.406;2022-12-29T06:34:46;11.20;99.90
33815;DHT22;20121;51.910;8.406;2022-12-29T06:37:12;11.30;99.90
33815;DHT22;20121;51.910;8.406;2022-12-29T06:42:04;11.40;99.90
33815;DHT22;20121;51.910;8.406;2022-12-29T06:49:24;11.30;99.90
33815;DHT22;20121;51.910;8.406;2022-12-29T06:51:49;11.10;99.90
33815;DHT22;20121;51.910;8.406;2022-12-29T06:54:15;11.00;99.90
33815;DHT22;20121;51.910;8.406;2022-12-29T06:56:41;10.90;99.90
33815;DHT22;20121;51.910;8.406;2022-12-29T07:13:49;10.80;99.90
33815;DHT22;20121;51.910;8.406;2022-12-29T07:16:15;10.10;99.90
33815;DHT22;20121;51.910;8.406;2022-12-29T07:18:41;11.00;99.90
33815;DHT22;20121;51.910;8.406;2022-12-29T07:21:06;11.00;99.90
33815;DHT22;20121;51.910;8.406;2022-12-29T07:23:32;11.00;99.90
33815;DHT22;20121;51.910;8.406;2022-12-29T07:26:03;11.00;99.90
33815;DHT22;20121;51.910;8.406;2022-12-29T07:28:29;11.10;99.90
33815;DHT22;20121;51.910;8.406;2022-12-29T07:30:54;11.30;99.90
33815;DHT22;20121;51.910;8.406;2022-12-29T07:33:20;10.90;99.90
33815;DHT22;20121;51.910;8.406;2022-12-29T07:35:46;10.60;99.90
33815;DHT22;20121;51.910;8.406;2022-12-29T07:38:12;10.50;99.90
33815;DHT22;20121;51.910;8.406;2022-12-29T07:40:37;10.50;99.90
33815;DHT22;20121;51.910;8.406;2022-12-29T07:43:03;10.60;99.90
33815;DHT22;20121;51.910;8.406;2022-12-29T07:45:29;10.40;99.90
33815;DHT22;20121;51.910;8.406;2022-12-29T07:47:55;10.30;99.90
33815;DHT22;20121;51.910;8.406;2022-12-29T07:50:21;10.30;99.90
33815;DHT22;20121;51.910;8.406;2022-12-29T07:52:47;10.30;99.90
33815;DHT22;20121;51.910;8.406;2022-12-29T07:55:14;10.20;99.90
33815;DHT22;20121;51.910;8.406;2022-12-29T07:57:40;10.20;99.90
33815;DHT22;20121;51.910;8.406;2022-12-29T08:00:06;10.20;99.90
33815;DHT22;20121;51.910;8.406;2022-12-29T08:02:31;10.00;99.90
33815;DHT22;20121;51.910;8.406;2022-12-29T08:04:57;10.20;99.90
33815;DHT22;20121;51.910;8.406;2022-12-29T08:07:22;10.10;99.90
33815;DHT22;20121;51.910;8.406;2022-12-29T08:12:14;10.10;99.90
33815;DHT22;20121;51.910;8.406;2022-12-29T08:14:40;9.90;99.90
33815;DHT22;20121;51.910;8.406;2022-12-29T08:17:05;10.00;99.90
33815;DHT22;20121;51.910;8.406;2022-12-29T08:19:31;10.00;99.90
33815;DHT22;20121;51.910;8.406;2022-12-29T08:21:57;10.00;99.90
33815;DHT22;20121;51.910;8.406;2022-12-29T08:24:22;10.20;99.90
33815;DHT22;20121;51.910;8.406;2022-12-29T08:26:48;10.00;99.90
33815;DHT22;20121;51.910;8.406;2022-12-29T08:29:13;10.00;99.90
33815;DHT22;20121;51.910;8.406;2022-12-29T08:31:39;10.10;99.90
33815;DHT22;20121;51.910;8.406;2022-12-29T08:34:05;10.00;99.90
33815;DHT22;20121;51.910;8.406;2022-12-29T08:36:31;10.00;99.90
33815;DHT22;20121;51.910;8.406;2022-12-29T08:38:57;10.00;99.90
33815;DHT22;20121;51.910;8.406;2022-12-29T08:41:23;10.10;99.90
33815;DHT22;20121;51.910;8.406;2022-12-29T08:46:16;10.00;99.90
33815;DHT22;20121;51.910;8.406;2022-12-29T08:48:42;10.10;99.90
33815;DHT22;20121;51.910;8.406;2022-12-29T09:32:49;10.20;99.90
33815;DHT22;20121;51.910;8.406;2022-12-29T09:35:15;10.20;99.90
33815;DHT22;20121;51.910;8.406;2022-12-29T09:37:42;10.70;99.90
33815;DHT22;20121;51.910;8.406;2022-12-29T09:40:23;10.40;99.90
33815;DHT22;20121;51.910;8.406;2022-12-29T09:45:34;10.10;99.90
33815;DHT22;20121;51.910;8.406;2022-12-29T09:48:04;10.50;99.90
33815;DHT22;20121;51.910;8.406;2022-12-29T09:50:35;10.20;99.90
33815;DHT22;20121;51.910;8.406;2022-12-29T09:55:53;10.70;99.90
33815;DHT22;20121;51.910;8.406;2022-12-29T09:58:56;10.20;99.90
33815;DHT22;20121;51.910;8.406;2022-12-29T10:01:46;10.30;99.90
33815;DHT22;20121;51.910;8.406;2022-12-29T10:04:14;10.20;99.90
33815;DHT22;20121;51.910;8.406;2022-12-29T10:07:08;10.20;99.90
33815;DHT22;20121;51.910;8.406;2022-12-29T10:15:17;10.30;99.90
33815;DHT22;20121;51.910;8.406;2022-12-29T10:17:48;10.10;99.90
33815;DHT22;20121;51.910;8.406;2022-12-29T10:23:47;10.30;99.90
33815;DHT22;20121;51.910;8.406;2022-12-29T10:26:13;10.30;99.90
33815;DHT22;20121;51.910;8.406;2022-12-29T10:28:50;10.40;99.90
33815;DHT22;20121;51.910;8.406;2022-12-29T10:31:22;11.00;99.90
33815;DHT22;20121;51.910;8.406;2022-12-29T10:34:00;10.50;99.90
33815;DHT22;20121;51.910;8.406;2022-12-29T10:36:43;10.60;99.90
33815;DHT22;20121;51.910;8.406;2022-12-29T10:42:36;10.80;99.90
33815;DHT22;20121;51.910;8.406;2022-12-29T10:45:04;11.00;99.90
33815;DHT22;20121;51.910;8.406;2022-12-29T10:47:34;11.10;99.90
33815;DHT22;20121;51.910;8.406;2022-12-29T10:50:01;11.00;99.90
33815;DHT22;20121;51.910;8.406;2022-12-29T10:52:28;11.10;99.90
33815;DHT22;20121;51.910;8.406;2022-12-29T10:55:10;11.00;99.90
33815;DHT22;20121;51.910;8.406;2022-12-29T10:57:47;11.00;99.90
33815;DHT22;20121;51.910;8.406;2022-12-29T11:00:17;11.00;99.90
33815;DHT22;20121;51.910;8.406;2022-12-29T11:02:47;11.10;99.90
33815;DHT22;20121;51.910;8.406;2022-12-29T11:07:59;11.00;99.90
33815;DHT22;20121;51.910;8.406;2022-12-29T11:13:02;11.50;99.90
33815;DHT22;20121;51.910;8.406;2022-12-29T11:15:39;11.50;99.90
33815;DHT22;20121;51.910;8.406;2022-12-29T11:18:04;11.00;99.90
33815;DHT22;20121;51.910;8.406;2022-12-29T11:23:02;11.00;99.90
33815;DHT22;20121;51.910;8.406;2022-12-29T11:25:29;11.50;99.90
33815;DHT22;20121;51.910;8.406;2022-12-29T11:28:02;11.50;99.90
33815;DHT22;20121;51.910;8.406;2022-12-29T11:30:32;11.00;99.90
33815;DHT22;20121;51.910;8.406;2022-12-29T11:32:58;11.40;99.90
33815;DHT22;20121;51.910;8.406;2022-12-29T11:35:41;11.60;99.90
33815;DHT22;20121;51.910;8.406;2022-12-29T11:38:22;10.90;99.90
33815;DHT22;20121;51.910;8.406;2022-12-29T11:40:50;10.90;99.90
33815;DHT22;20121;51.910;8.406;2022-12-29T11:43:34;11.00;99.90
33815;DHT22;20121;51.910;8.406;2022-12-29T11:46:02;10.90;99.90
33815;DHT22;20121;51.910;8.406;2022-12-29T11:48:39;10.90;99.90
33815;DHT22;20121;51.910;8.406;2022-12-29T11:51:06;11.30;99.90
33815;DHT22;20121;51.910;8.406;2022-12-29T11:53:37;10.90;99.90
33815;DHT22;20121;51.910;8.406;2022-12-29T12:01:56;10.80;99.90
33815;DHT22;20121;51.910;8.406;2022-12-29T12:04:30;11.30;99.90
33815;DHT22;20121;51.910;8.406;2022-12-29T12:07:11;11.40;99.90
33815;DHT22;20121;51.910;8.406;2022-12-29T12:09:53;10.90;99.90
33815;DHT22;20121;51.910;8.406;2022-12-29T12:12:43;11.10;99.90
33815;DHT22;20121;51.910;8.406;2022-12-29T12:15:17;11.00;99.90
33815;DHT22;20121;51.910;8.406;2022-12-29T12:18:05;10.90;99.90
33815;DHT22;20121;51.910;8.406;2022-12-29T12:20:56;11.00;99.90
33815;DHT22;20121;51.910;8.406;2022-12-29T12:26:17;11.00;99.90
33815;DHT22;20121;51.910;8.406;2022-12-29T12:28:56;10.90;99.90
33815;DHT22;20121;51.910;8.406;2022-12-29T12:34:41;11.10;99.90
33815;DHT22;20121;51.910;8.406;2022-12-29T12:42:56;10.80;99.90
33815;DHT22;20121;51.910;8.406;2022-12-29T12:45:45;11.00;99.90
33815;DHT22;20121;51.910;8.406;2022-12-29T12:54:25;11.10;99.90
33815;DHT22;20121;51.910;8.406;2022-12-29T13:00:14;11.20;99.90
33815;DHT22;20121;51.910;8.406;2022-12-29T13:17:26;11.10;99.90
33815;DHT22;20121;51.910;8.406;2022-12-29T13:28:19;11.00;99.90
33815;DHT22;20121;51.910;8.406;2022-12-29T13:31:00;11.10;99.90
33815;DHT22;20121;51.910;8.406;2022-12-29T13:41:03;11.00;99.90
33815;DHT22;20121;51.910;8.406;2022-12-29T13:43:31;11.20;99.90
33815;DHT22;20121;51.910;8.406;2022-12-29T13:46:01;11.60;99.90
33815;DHT22;20121;51.910;8.406;2022-12-29T13:48:49;11.00;99.90
33815;DHT22;20121;51.910;8.406;2022-12-29T13:51:17;11.40;99.90
33815;DHT22;20121;51.910;8.406;2022-12-29T13:56:39;10.90;99.90
33815;DHT22;20121;51.910;8.406;2022-12-29T14:01:59;10.90;99.90
33815;DHT22;20121;51.910;8.406;2022-12-29T14:04:29;11.00;99.90
33815;DHT22;20121;51.910;8.406;2022-12-29T14:07:12;10.90;99.90
33815;DHT22;20121;51.910;8.406;2022-12-29T14:09:47;10.90;99.90
33815;DHT22;20121;51.910;8.406;2022-12-29T14:17:35;10.80;99.90
33815;DHT22;20121;51.910;8.406;2022-12-29T14:20:02;11.00;99.90
33815;DHT22;20121;51.910;8.406;2022-12-29T14:22:29;10.70;99.90
33815;DHT22;20121;51.910;8.406;2022-12-29T14:24:55;10.80;99.90
33815;DHT22;20121;51.910;8.406;2022-12-29T14:29:48;10.70;99.90
33815;DHT22;20121;51.910;8.406;2022-12-29T14:34:59;10.70;99.90
33815;DHT22;20121;51.910;8.406;2022-12-29T14:37:35;10.60;99.90
33815;DHT22;20121;51.910;8.406;2022-12-29T14:40:23;10.60;99.90
33815;DHT22;20121;51.910;8.406;2022-12-29T14:42:55;10.60;99.90
33815;DHT22;20121;51.910;8.406;2022-12-29T14:47:49;10.50;99.90
33815;DHT22;20121;51.910;8.406;2022-12-29T14:53:03;10.50;99.90
33815;DHT22;20121;51.910;8.406;2022-12-29T14:55:46;10.90;99.90
33815;DHT22;20121;51.910;8.406;2022-12-29T14:58:32;10.50;99.90
33815;DHT22;20121;51.910;8.406;2022-12-29T15:01:03;10.50;99.90
33815;DHT22;20121;51.910;8.406;2022-12-29T15:03:45;10.50;99.90
33815;DHT22;20121;51.910;8.406;2022-12-29T15:06:13;10.50;99.90
33815;DHT22;20121;51.910;8.406;2022-12-29T15:11:18;10.50;99.90
33815;DHT22;20121;51.910;8.406;2022-12-29T15:13:45;10.80;99.90
33815;DHT22;20121;51.910;8.406;2022-12-29T15:16:24;10.40;99.90
33815;DHT22;20121;51.910;8.406;2022-12-29T15:18:50;10.30;99.90
33815;DHT22;20121;51.910;8.406;2022-12-29T15:21:16;10.90;99.90
33815;DHT22;20121;51.910;8.406;2022-12-29T15:23:44;10.40;99.90
33815;DHT22;20121;51.910;8.406;2022-12-29T15:26:11;10.50;99.90
33815;DHT22;20121;51.910;8.406;2022-12-29T15:28:45;10.30;99.90
33815;DHT22;20121;51.910;8.406;2022-12-29T15:31:15;10.50;99.90
33815;DHT22;20121;51.910;8.406;2022-12-29T15:33:43;10.30;99.90
33815;DHT22;20121;51.910;8.406;2022-12-29T15:36:18;10.70;99.90
33815;DHT22;20121;51.910;8.406;2022-12-29T15:41:56;10.30;99.90
33815;DHT22;20121;51.910;8.406;2022-12-29T15:44:39;10.30;99.90
33815;DHT22;20121;51.910;8.406;2022-12-29T15:47:13;10.30;99.90
33815;DHT22;20121;51.910;8.406;2022-12-29T15:49:43;10.20;99.90
33815;DHT22;20121;51.910;8.406;2022-12-29T15:52:09;10.20;99.90
33815;DHT22;20121;51.910;8.406;2022-12-29T15:54:36;10.50;99.90
33815;DHT22;20121;51.910;8.406;2022-12-29T15:57:02;10.20;99.90
33815;DHT22;20121;51.910;8.406;2022-12-29T15:59:31;10.20;99.90
33815;DHT22;20121;51.910;8.406;2022-12-29T16:01:58;10.20;99.90
33815;DHT22;20121;51.910;8.406;2022-12-29T16:04:27;10.10;99.90
33815;DHT22;20121;51.910;8.406;2022-12-29T16:09:33;10.20;99.90
33815;DHT22;20121;51.910;8.406;2022-12-29T16:12:03;10.30;99.90
33815;DHT22;20121;51.910;8.406;2022-12-29T16:14:52;10.10;99.90
33815;DHT22;20121;51.910;8.406;2022-12-29T16:17:22;10.00;99.90
33815;DHT22;20121;51.910;8.406;2022-12-29T16:20:02;10.20;99.90
33815;DHT22;20121;51.910;8.406;2022-12-29T16:22:42;9.90;99.90
33815;DHT22;20121;51.910;8.406;2022-12-29T16:25:32;9.80;99.90
33815;DHT22;20121;51.910;8.406;2022-12-29T16:28:00;10.40;99.90
33815;DHT22;20121;51.910;8.406;2022-12-29T16:30:29;9.80;99.90
33815;DHT22;20121;51.910;8.406;2022-12-29T16:32:58;9.90;99.90
33815;DHT22;20121;51.910;8.406;2022-12-29T16:35:46;9.90;99.90
33815;DHT22;20121;51.910;8.406;2022-12-29T16:41:02;10.00;99.90
33815;DHT22;20121;51.910;8.406;2022-12-29T16:43:30;10.00;99.90
33815;DHT22;20121;51.910;8.406;2022-12-29T16:46:21;10.00;99.90
33815;DHT22;20121;51.910;8.406;2022-12-29T16:48:52;10.10;99.90
33815;DHT22;20121;51.910;8.406;2022-12-29T16:51:32;10.10;99.90
33815;DHT22;20121;51.910;8.406;2022-12-29T16:53:59;10.20;99.90
33815;DHT22;20121;51.910;8.406;2022-12-29T16:56:29;10.00;99.90
33815;DHT22;20121;51.910;8.406;2022-12-29T16:59:06;10.10;99.90
33815;DHT22;20121;51.910;8.406;2022-12-29T17:01:38;10.10;99.90
33815;DHT22;20121;51.910;8.406;2022-12-29T17:04:07;9.90;99.90
33815;DHT22;20121;51.910;8.406;2022-12-29T17:06:33;10.00;99.90
33815;DHT22;20121;51.910;8.406;2022-12-29T17:08:58;10.10;99.90
33815;DHT22;20121;51.910;8.406;2022-12-29T17:11:32;10.10;99.90
33815;DHT22;20121;51.910;8.406;2022-12-29T17:14:37;10.10;99.90
33815;DHT22;20121;51.910;8.406;2022-12-29T17:19:55;10.10;99.90
33815;DHT22;20121;51.910;8.406;2022-12-29T17:22:26;10.20;99.90
33815;DHT22;20121;51.910;8.406;2022-12-29T17:24:53;10.20;99.90
33815;DHT22;20121;51.910;8.406;2022-12-29T17:27:37;10.20;99.90
33815;DHT22;20121;51.910;8.406;2022-12-29T17:30:15;10.30;99.90
33815;DHT22;20121;51.910;8.406;2022-12-29T17:32:43;10.20;99.90
33815;DHT22;20121;51.910;8.406;2022-12-29T17:35:15;10.30;99.90
33815;DHT22;20121;51.910;8.406;2022-12-29T17:37:41;10.10;99.90
33815;DHT22;20121;51.910;8.406;2022-12-29T17:40:13;10.40;99.90
33815;DHT22;20121;51.910;8.406;2022-12-29T17:42:52;10.10;99.90
33815;DHT22;20121;51.910;8.406;2022-12-29T17:45:29;10.00;99.90
33815;DHT22;20121;51.910;8.406;2022-12-29T17:47:56;10.00;99.90
33815;DHT22;20121;51.910;8.406;2022-12-29T17:50:25;10.00;99.90
33815;DHT22;20121;51.910;8.406;2022-12-29T17:52:54;11.70;99.90
33815;DHT22;20121;51.910;8.406;2022-12-29T17:55:22;10.70;99.90
33815;DHT22;20121;51.910;8.406;2022-12-29T17:57:48;9.70;99.90
33815;DHT22;20121;51.910;8.406;2022-12-29T18:00:19;9.90;99.90
33815;DHT22;20121;51.910;8.406;2022-12-29T18:02:45;10.10;99.90
33815;DHT22;20121;51.910;8.406;2022-12-29T18:05:25;9.90;99.90
33815;DHT22;20121;51.910;8.406;2022-12-29T18:07:53;9.90;99.90
33815;DHT22;20121;51.910;8.406;2022-12-29T18:10:21;9.90;99.90
33815;DHT22;20121;51.910;8.406;2022-12-29T18:12:49;10.00;99.90
33815;DHT22;20121;51.910;8.406;2022-12-29T18:15:29;10.80;99.90
33815;DHT22;20121;51.910;8.406;2022-12-29T18:18:00;10.00;99.90
33815;DHT22;20121;51.910;8.406;2022-12-29T18:20:28;9.90;99.90
33815;DHT22;20121;51.910;8.406;2022-12-29T18:22:55;9.50;99.90
33815;DHT22;20121;51.910;8.406;2022-12-29T18:25:24;9.50;99.90
33815;DHT22;20121;51.910;8.406;2022-12-29T18:27:50;9.40;99.90
33815;DHT22;20121;51.910;8.406;2022-12-29T18:30:17;9.40;99.90
33815;DHT22;20121;51.910;8.406;2022-12-29T18:32:42;10.00;99.90
33815;DHT22;20121;51.910;8.406;2022-12-29T18:35:25;10.20;99.90
33815;DHT22;20121;51.910;8.406;2022-12-29T18:37:51;9.10;99.90
33815;DHT22;20121;51.910;8.406;2022-12-29T18:40:16;8.90;99.90
33815;DHT22;20121;51.910;8.406;2022-12-29T18:45:21;8.80;99.90
33815;DHT22;20121;51.910;8.406;2022-12-29T18:47:47;8.80;99.90
33815;DHT22;20121;51.910;8.406;2022-12-29T18:50:14;8.50;99.90
33815;DHT22;20121;51.910;8.406;2022-12-29T18:52:39;8.70;99.90
33815;DHT22;20121;51.910;8.406;2022-12-29T18:55:18;8.30;99.90
33815;DHT22;20121;51.910;8.406;2022-12-29T18:57:45;8.30;99.90
33815;DHT22;20121;51.910;8.406;2022-12-29T19:00:13;8.20;99.90
33815;DHT22;20121;51.910;8.406;2022-12-29T19:02:39;8.10;99.90
33815;DHT22;20121;51.910;8.406;2022-12-29T19:05:26;7.80;99.90
33815;DHT22;20121;51.910;8.406;2022-12-29T19:07:52;8.00;99.90
33815;DHT22;20121;51.910;8.406;2022-12-29T19:10:19;7.70;99.90
33815;DHT22;20121;51.910;8.406;2022-12-29T19:12:46;7.90;99.90
33815;DHT22;20121;51.910;8.406;2022-12-29T19:15:33;7.60;99.90
33815;DHT22;20121;51.910;8.406;2022-12-29T19:18:01;7.80;99.90
33815;DHT22;20121;51.910;8.406;2022-12-29T19:20:36;7.70;99.90
33815;DHT22;20121;51.910;8.406;2022-12-29T19:23:07;7.80;99.90
33815;DHT22;20121;51.910;8.406;2022-12-29T19:25:34;8.40;99.90
33815;DHT22;20121;51.910;8.406;2022-12-29T19:28:00;8.20;99.90
33815;DHT22;20121;51.910;8.406;2022-12-29T19:30:27;7.70;99.90
33815;DHT22;20121;51.910;8.406;2022-12-29T19:32:54;8.20;99.90
33815;DHT22;20121;51.910;8.406;2022-12-29T19:35:23;7.70;99.90
33815;DHT22;20121;51.910;8.406;2022-12-29T19:37:49;7.30;99.90